Time;durP1;ratioP1;P1;durP2;ratioP2;P2;SDS_P1;SDS_P2;PMS_P1;PMS_P2;Temp;Humidity;BMP_temperature;BMP_pressure;BME280_temperature;BME280_humidity;BME280_pressure;Samples;Min_cycle;Max_cycle;Signal;HPM_P1;HPM_P2
2023/05/16 00:00:19;;;;;;;0.30;0.30;;;;;;;14.91;59.87;101944.63;5001193;28;20034;-64
2023/05/16 00:02:45;;;;;;;0.10;0.10;;;;;;;15.24;58.34;101954.19;5005686;28;20065;-64
2023/05/16 00:05:13;;;;;;;0.20;0.20;;;;;;;14.85;59.07;101948.22;5010632;28;20387;-65
2023/05/16 00:07:38;;;;;;;0.20;0.20;;;;;;;15.01;58.53;101948.66;5010783;28;20109;-64
2023/05/16 00:10:04;;;;;;;0.20;0.20;;;;;;;14.86;60.03;101949.03;5010146;28;20129;-64
2023/05/16 00:12:31;;;;;;;0.30;0.30;;;;;;;15.04;59.43;101946.31;5010131;28;20439;-65
2023/05/16 00:14:58;;;;;;;0.30;0.30;;;;;;;14.49;61.03;101950.91;5010093;28;20048;-63
2023/05/16 00:17:27;;;;;;;0.20;0.20;;;;;;;14.71;61.04;101956.72;5010331;28;20108;-64
2023/05/16 00:19:57;;;;;;;0.20;0.20;;;;;;;14.60;61.30;101966.38;4995789;28;20105;-63
2023/05/16 00:22:26;;;;;;;0.30;0.30;;;;;;;14.42;61.15;101960.16;5014268;28;20042;-64
2023/05/16 00:24:51;;;;;;;0.40;0.40;;;;;;;14.66;60.94;101962.00;5014038;28;20153;-65
2023/05/16 00:27:16;;;;;;;0.28;0.28;;;;;;;14.55;60.44;101968.94;5013660;28;20113;-65
2023/05/16 00:29:41;;;;;;;0.30;0.30;;;;;;;14.76;60.41;101963.09;5013762;28;20053;-64
2023/05/16 00:32:07;;;;;;;0.10;0.10;;;;;;;14.81;60.54;101955.16;5014001;28;20398;-63
2023/05/16 00:34:33;;;;;;;0.10;0.10;;;;;;;14.46;61.28;101956.78;5014402;28;20497;-65
2023/05/16 00:36:59;;;;;;;0.30;0.30;;;;;;;14.42;61.02;101957.44;5014048;28;20033;-64
2023/05/16 00:39:24;;;;;;;0.20;0.20;;;;;;;14.72;60.54;101956.47;5013616;28;20049;-63
2023/05/16 00:41:50;;;;;;;0.20;0.20;;;;;;;14.54;60.40;101955.66;5013608;28;20037;-64
2023/05/16 00:44:15;;;;;;;0.20;0.20;;;;;;;14.30;61.76;101956.50;5013619;28;20076;-63
2023/05/16 00:46:41;;;;;;;0.20;0.20;;;;;;;14.62;60.52;101960.78;5014200;28;20029;-63
2023/05/16 00:49:08;;;;;;;0.40;0.40;;;;;;;13.96;62.75;101958.66;5013938;28;20113;-64
2023/05/16 00:51:34;;;;;;;0.10;0.10;;;;;;;14.48;61.03;101961.97;5013920;28;20045;-64
2023/05/16 00:53:59;;;;;;;0.25;0.25;;;;;;;14.29;61.08;101966.50;5013570;28;20129;-63
2023/05/16 00:56:25;;;;;;;0.30;0.30;;;;;;;14.94;59.03;101963.09;5013734;28;20148;-63
2023/05/16 00:58:50;;;;;;;0.20;0.20;;;;;;;14.94;59.53;101964.97;5014037;28;20060;-63
2023/05/16 01:01:16;;;;;;;0.30;0.30;;;;;;;13.89;61.79;101962.47;5013677;28;20046;-63
2023/05/16 01:03:44;;;;;;;0.50;0.50;;;;;;;14.20;61.55;101965.09;5013710;28;20034;-64
2023/05/16 01:06:11;;;;;;;0.20;0.20;;;;;;;14.82;58.75;101970.31;5012433;28;20034;-63
2023/05/16 01:08:36;;;;;;;0.20;0.20;;;;;;;13.96;61.46;101968.63;5013586;28;20042;-65
2023/05/16 01:11:11;;;;;;;0.20;0.20;;;;;;;14.75;59.61;101972.28;5013277;28;20033;-64
2023/05/16 01:13:53;;;;;;;0.30;0.30;;;;;;;14.17;60.51;101967.44;5013860;28;20057;-64
2023/05/16 01:16:25;;;;;;;0.20;0.20;;;;;;;14.55;59.10;101974.38;5013471;28;20065;-64
2023/05/16 01:19:00;;;;;;;0.20;0.20;;;;;;;14.53;60.15;101973.75;5013515;28;20113;-65
2023/05/16 01:21:51;;;;;;;0.30;0.30;;;;;;;14.67;59.16;101975.28;5013344;28;20460;-64
2023/05/16 01:24:33;;;;;;;0.30;0.30;;;;;;;14.23;61.43;101975.47;5012916;28;20049;-63
2023/05/16 01:26:59;;;;;;;0.20;0.20;;;;;;;13.76;62.08;101971.47;5013567;28;20478;-64
2023/05/16 01:29:24;;;;;;;0.20;0.20;;;;;;;13.97;61.10;101978.41;5013585;28;20034;-63
2023/05/16 01:31:50;;;;;;;0.40;0.40;;;;;;;14.05;60.98;101980.84;5013132;28;20030;-63
2023/05/16 01:34:17;;;;;;;0.30;0.30;;;;;;;13.96;61.08;101987.53;5013077;28;20037;-64
2023/05/16 01:36:56;;;;;;;0.10;0.10;;;;;;;13.63;61.86;101984.25;5013114;28;20038;-64
2023/05/16 01:39:32;;;;;;;0.20;0.20;;;;;;;14.57;59.89;101977.69;5012653;28;20506;-63
2023/05/16 01:42:08;;;;;;;0.35;0.35;;;;;;;14.23;60.50;101975.47;5012730;28;20034;-64
2023/05/16 01:44:44;;;;;;;0.20;0.20;;;;;;;14.10;60.27;101984.53;5012525;28;20033;-65
2023/05/16 01:47:15;;;;;;;0.25;0.25;;;;;;;14.62;58.62;101979.72;5012908;28;20037;-64
2023/05/16 01:50:14;;;;;;;0.30;0.30;;;;;;;14.34;60.26;101984.75;5013089;28;20112;-65
2023/05/16 01:53:20;;;;;;;0.30;0.30;;;;;;;14.17;59.87;101989.84;5013163;28;20050;-64
2023/05/16 01:55:48;;;;;;;0.30;0.30;;;;;;;13.98;60.06;101988.16;4992939;28;20049;-64
2023/05/16 01:58:16;;;;;;;0.30;0.30;;;;;;;13.91;59.90;101985.50;4992718;28;20515;-63
2023/05/16 02:00:42;;;;;;;0.20;0.20;;;;;;;13.89;60.21;101979.50;4993107;28;20125;-64
2023/05/16 02:03:07;;;;;;;0.10;0.10;;;;;;;13.73;61.40;101980.03;4993051;28;20517;-64
2023/05/16 02:05:33;;;;;;;0.20;0.20;;;;;;;13.72;61.20;101975.66;4992980;28;20034;-61
2023/05/16 02:07:59;;;;;;;0.30;0.30;;;;;;;13.43;62.24;101986.22;4992491;28;20437;-63
2023/05/16 02:10:25;;;;;;;0.20;0.20;;;;;;;13.57;61.90;101983.25;4992779;28;20072;-62
2023/05/16 02:12:50;;;;;;;0.30;0.30;;;;;;;13.79;61.33;101989.97;4992642;28;20415;-62
2023/05/16 02:15:16;;;;;;;0.30;0.30;;;;;;;13.69;61.13;101988.78;4992957;28;20034;-62
2023/05/16 02:17:41;;;;;;;0.30;0.30;;;;;;;13.42;61.98;101992.69;4993180;28;20046;-62
2023/05/16 02:20:10;;;;;;;0.20;0.20;;;;;;;13.36;62.41;101991.66;4992814;28;20048;-62
2023/05/16 02:22:38;;;;;;;0.30;0.30;;;;;;;12.89;62.96;101987.44;4992826;28;20034;-63
2023/05/16 02:25:04;;;;;;;0.30;0.30;;;;;;;13.45;62.17;101981.44;5003681;28;20034;-63
2023/05/16 02:27:30;;;;;;;0.20;0.20;;;;;;;13.31;62.16;101983.38;5011902;28;20065;-61
2023/05/16 02:29:55;;;;;;;0.30;0.30;;;;;;;13.66;61.52;101984.63;5012558;28;20022;-62
2023/05/16 02:32:21;;;;;;;0.38;0.38;;;;;;;13.48;61.71;101984.56;5012529;28;20497;-62
2023/05/16 02:34:46;;;;;;;0.15;0.15;;;;;;;13.45;61.81;101984.97;5011675;28;20034;-62
2023/05/16 02:37:12;;;;;;;0.20;0.20;;;;;;;12.83;64.17;101992.88;5011832;28;20034;-62
2023/05/16 02:39:37;;;;;;;0.25;0.25;;;;;;;13.17;63.13;101989.88;5011987;28;20037;-63
2023/05/16 02:42:03;;;;;;;0.30;0.30;;;;;;;13.18;62.61;101995.06;5010875;28;20026;-62
2023/05/16 02:44:29;;;;;;;0.30;0.30;;;;;;;13.75;60.85;101996.84;5012370;28;20056;-63
2023/05/16 02:46:54;;;;;;;0.20;0.20;;;;;;;13.91;60.18;101996.31;5011728;28;20030;-62
2023/05/16 02:49:20;;;;;;;0.32;0.32;;;;;;;13.63;60.80;101993.19;5011724;28;20562;-62
2023/05/16 02:51:45;;;;;;;0.30;0.30;;;;;;;13.74;60.78;101997.03;5011733;28;20042;-63
2023/05/16 02:54:11;;;;;;;0.25;0.25;;;;;;;13.87;60.28;101996.97;5011293;28;20052;-62
2023/05/16 02:56:37;;;;;;;0.20;0.20;;;;;;;13.29;62.29;102001.66;5011995;28;20037;-63
2023/05/16 02:59:04;;;;;;;0.30;0.30;;;;;;;13.62;61.73;101996.91;5011316;28;20050;-61
2023/05/16 03:01:29;;;;;;;0.25;0.25;;;;;;;13.42;61.98;102006.19;5011709;28;20038;-62
2023/05/16 03:03:55;;;;;;;0.30;0.30;;;;;;;13.05;63.43;102014.00;5010241;28;20038;-63
2023/05/16 03:06:21;;;;;;;0.30;0.30;;;;;;;13.36;62.72;102007.88;5011589;28;20375;-62
2023/05/16 03:08:46;;;;;;;0.20;0.20;;;;;;;13.25;62.78;102007.72;5011623;28;20041;-62
2023/05/16 03:11:12;;;;;;;0.20;0.20;;;;;;;13.01;63.51;102010.03;5009872;28;20048;-63
2023/05/16 03:13:37;;;;;;;0.17;0.17;;;;;;;13.17;63.39;102008.75;5011371;28;20045;-62
2023/05/16 03:16:03;;;;;;;0.30;0.30;;;;;;;13.09;63.31;102012.53;5011269;28;20030;-62
2023/05/16 03:18:29;;;;;;;0.20;0.20;;;;;;;13.45;62.31;102011.13;5011589;28;20034;-63
2023/05/16 03:20:55;;;;;;;0.38;0.38;;;;;;;14.03;60.32;102015.38;5011340;28;20197;-62
2023/05/16 03:23:20;;;;;;;0.25;0.25;;;;;;;13.54;61.25;102020.66;5011577;28;20126;-62
2023/05/16 03:25:46;;;;;;;0.20;0.20;;;;;;;13.61;61.41;102024.13;5010893;28;20584;-62
2023/05/16 03:28:12;;;;;;;0.38;0.38;;;;;;;13.20;62.36;102016.44;5010850;28;20390;-62
2023/05/16 03:30:37;;;;;;;0.30;0.30;;;;;;;13.48;61.82;102016.13;5011128;28;20052;-62
2023/05/16 03:33:03;;;;;;;0.20;0.20;;;;;;;13.70;61.19;102018.25;5010749;28;20092;-65
2023/05/16 03:35:30;;;;;;;0.20;0.20;;;;;;;13.52;61.55;102022.75;5011500;28;20368;-63
2023/05/16 03:37:55;;;;;;;0.30;0.30;;;;;;;13.40;62.25;102022.59;5011307;28;20083;-62
2023/05/16 03:40:21;;;;;;;0.43;0.43;;;;;;;13.08;62.85;102026.25;5010880;28;20037;-63
2023/05/16 03:42:46;;;;;;;0.20;0.20;;;;;;;13.23;62.44;102027.63;5010482;28;20033;-63
2023/05/16 03:45:12;;;;;;;0.20;0.20;;;;;;;13.50;61.70;102024.84;5010761;28;20030;-61
2023/05/16 03:47:37;;;;;;;0.30;0.30;;;;;;;13.42;61.63;102027.78;5011106;28;20022;-62
2023/05/16 03:50:03;;;;;;;0.30;0.30;;;;;;;13.22;62.83;102022.47;5010553;28;20072;-61
2023/05/16 03:52:29;;;;;;;0.20;0.20;;;;;;;13.56;61.50;102029.38;5016688;28;20121;-64
2023/05/16 03:54:54;;;;;;;0.20;0.20;;;;;;;13.66;61.45;102027.84;5010227;28;20133;-63
2023/05/16 03:57:20;;;;;;;0.30;0.30;;;;;;;13.89;60.11;102027.31;5010395;28;20042;-62
2023/05/16 03:59:45;;;;;;;0.20;0.20;;;;;;;14.10;59.51;102033.19;5010825;28;20037;-62
2023/05/16 04:02:11;;;;;;;0.30;0.30;;;;;;;13.76;61.18;102038.19;5010512;28;20063;-62
2023/05/16 04:04:36;;;;;;;0.20;0.20;;;;;;;13.84;60.48;102037.91;5010570;28;20071;-61
2023/05/16 04:07:01;;;;;;;0.20;0.20;;;;;;;14.18;59.75;102042.06;5010471;28;20065;-61
2023/05/16 04:09:27;;;;;;;0.20;0.20;;;;;;;14.64;58.14;102045.25;5010888;28;20038;-63
2023/05/16 04:11:55;;;;;;;0.22;0.22;;;;;;;14.74;57.59;102043.66;5011166;28;20037;-63
2023/05/16 04:14:20;;;;;;;0.30;0.30;;;;;;;14.31;58.64;102040.09;5010622;28;20046;-62
2023/05/16 04:16:45;;;;;;;0.10;0.10;;;;;;;13.90;60.41;102034.34;5010523;28;20036;-62
2023/05/16 04:19:11;;;;;;;0.30;0.30;;;;;;;13.80;61.09;102042.94;5010258;28;20034;-62
2023/05/16 04:21:36;;;;;;;0.30;0.30;;;;;;;13.57;61.67;102052.63;5010432;28;20030;-61
2023/05/16 04:24:02;;;;;;;0.30;0.30;;;;;;;13.04;62.96;102049.28;5010473;28;20030;-62
2023/05/16 04:26:27;;;;;;;0.25;0.25;;;;;;;13.55;62.40;102054.72;5010799;28;20409;-63
2023/05/16 04:28:53;;;;;;;0.28;0.28;;;;;;;14.23;59.87;102053.06;5010311;28;20038;-62
2023/05/16 04:31:18;;;;;;;0.40;0.40;;;;;;;13.81;59.53;102057.28;5010424;28;20127;-63
2023/05/16 04:33:44;;;;;;;0.38;0.38;;;;;;;13.85;60.31;102056.66;5010496;28;20453;-62
2023/05/16 04:36:10;;;;;;;0.25;0.25;;;;;;;14.18;59.20;102059.13;5010486;28;20397;-64
2023/05/16 04:38:35;;;;;;;0.30;0.30;;;;;;;13.91;59.76;102063.88;5010924;28;20108;-63
2023/05/16 04:41:01;;;;;;;0.30;0.30;;;;;;;13.56;61.11;102059.09;5010295;28;20065;-62
2023/05/16 04:43:27;;;;;;;0.10;0.10;;;;;;;13.56;61.49;102064.47;4997467;28;20494;-61
2023/05/16 04:45:52;;;;;;;0.22;0.22;;;;;;;13.60;61.47;102061.13;4990950;28;20047;-63
2023/05/16 04:48:18;;;;;;;0.30;0.30;;;;;;;13.74;60.50;102064.56;4990794;28;20085;-62
2023/05/16 04:50:43;;;;;;;0.20;0.20;;;;;;;14.14;59.03;102066.00;4991318;28;20406;-65
2023/05/16 04:53:09;;;;;;;0.35;0.35;;;;;;;14.20;59.32;102064.28;4990646;28;20038;-63
2023/05/16 04:55:34;;;;;;;0.30;0.30;;;;;;;14.47;58.19;102066.59;5010138;28;20038;-62
2023/05/16 04:58:00;;;;;;;0.30;0.30;;;;;;;13.86;59.61;102071.78;5009791;28;20147;-63
2023/05/16 05:00:25;;;;;;;0.32;0.32;;;;;;;14.40;59.15;102067.72;5009993;28;20050;-64
2023/05/16 05:02:51;;;;;;;0.28;0.28;;;;;;;13.95;59.60;102072.38;5010638;28;20029;-62
2023/05/16 05:05:16;;;;;;;0.30;0.30;;;;;;;14.09;59.24;102079.34;5009467;28;20044;-63
2023/05/16 05:07:42;;;;;;;0.20;0.20;;;;;;;14.37;58.34;102079.78;5015832;28;20137;-62
2023/05/16 05:10:08;;;;;;;0.20;0.20;;;;;;;14.61;57.34;102078.97;5013813;28;20048;-63
2023/05/16 05:12:34;;;;;;;0.10;0.10;;;;;;;14.85;56.72;102080.00;5013575;28;20497;-62
2023/05/16 05:15:00;;;;;;;0.20;0.20;;;;;;;14.28;58.38;102077.59;5013142;28;20390;-63
2023/05/16 05:17:25;;;;;;;0.35;0.35;;;;;;;14.14;58.97;102074.13;5014240;28;20042;-62
2023/05/16 05:19:50;;;;;;;0.25;0.25;;;;;;;13.99;59.04;102076.31;5013684;28;20196;-62
2023/05/16 05:22:16;;;;;;;0.20;0.20;;;;;;;14.41;58.39;102070.19;5013240;28;20034;-61
2023/05/16 05:24:41;;;;;;;0.20;0.20;;;;;;;13.98;59.01;102080.88;5013040;28;20065;-63
2023/05/16 05:27:07;;;;;;;0.30;0.30;;;;;;;14.15;58.56;102085.75;5012507;28;20030;-62
2023/05/16 05:29:32;;;;;;;0.30;0.30;;;;;;;14.49;57.47;102082.59;5012757;28;20462;-64
2023/05/16 05:31:58;;;;;;;0.20;0.20;;;;;;;14.96;56.41;102082.81;5015534;28;20405;-63
2023/05/16 05:34:23;;;;;;;0.20;0.20;;;;;;;14.92;56.38;102086.16;5012594;28;20088;-63
2023/05/16 05:36:48;;;;;;;0.20;0.20;;;;;;;15.19;55.93;102094.88;5012622;28;20041;-63
2023/05/16 05:39:14;;;;;;;0.30;0.30;;;;;;;14.54;56.81;102097.16;5013509;28;20041;-62
2023/05/16 05:41:39;;;;;;;0.30;0.30;;;;;;;14.10;58.46;102102.63;5023743;28;20924;-63
2023/05/16 05:44:05;;;;;;;0.20;0.20;;;;;;;14.50;57.44;102092.41;5012414;28;20084;-61
2023/05/16 05:46:32;;;;;;;0.10;0.10;;;;;;;14.26;58.13;102096.69;5020150;28;20509;-61
2023/05/16 05:48:58;;;;;;;0.30;0.30;;;;;;;14.37;57.81;102098.72;5021633;28;20033;-61
2023/05/16 05:51:24;;;;;;;0.30;0.30;;;;;;;14.54;58.35;102099.84;5023833;28;20038;-61
2023/05/16 05:53:50;;;;;;;0.30;0.30;;;;;;;14.65;57.52;102104.53;5027373;28;20030;-62
2023/05/16 05:56:15;;;;;;;0.20;0.20;;;;;;;14.18;59.18;102102.38;5012861;28;20100;-63
2023/05/16 05:58:41;;;;;;;0.17;0.17;;;;;;;15.12;56.49;102105.75;5043883;28;20053;-62
2023/05/16 06:01:06;;;;;;;0.30;0.30;;;;;;;14.63;57.42;102109.34;5016396;28;20115;-62
2023/05/16 06:03:32;;;;;;;0.20;0.20;;;;;;;14.57;57.12;102115.63;5019166;28;20397;-61
2023/05/16 06:05:57;;;;;;;0.17;0.17;;;;;;;14.75;56.82;102114.88;5012550;28;20065;-61
2023/05/16 06:08:22;;;;;;;0.32;0.32;;;;;;;14.97;55.61;102121.53;5021669;28;20030;-64
2023/05/16 06:10:48;;;;;;;0.20;0.20;;;;;;;14.89;56.18;102121.81;5014096;28;20025;-63
2023/05/16 06:13:13;;;;;;;0.10;0.10;;;;;;;15.23;55.97;102115.88;5016059;28;20509;-61
2023/05/16 06:15:38;;;;;;;0.30;0.30;;;;;;;15.51;55.36;102112.63;5015176;28;20121;-61
2023/05/16 06:18:04;;;;;;;0.20;0.20;;;;;;;15.67;54.54;102129.13;5011961;28;20026;-61
2023/05/16 06:20:29;;;;;;;0.30;0.30;;;;;;;15.58;55.07;102132.38;5012833;28;20029;-61
2023/05/16 06:22:55;;;;;;;0.30;0.30;;;;;;;16.15;53.01;102126.41;5012267;28;20060;-62
2023/05/16 06:25:20;;;;;;;0.20;0.20;;;;;;;15.97;53.69;102128.31;5012254;28;20037;-62
2023/05/16 06:27:46;;;;;;;0.20;0.20;;;;;;;15.36;54.76;102128.41;5012024;28;20474;-62
2023/05/16 06:30:11;;;;;;;0.20;0.20;;;;;;;15.86;54.09;102118.25;5011823;28;20045;-63
2023/05/16 06:32:39;;;;;;;0.15;0.15;;;;;;;16.16;53.07;102119.91;5011746;28;20041;-62
2023/05/16 06:35:04;;;;;;;0.20;0.20;;;;;;;15.43;55.49;102129.22;5029573;28;20037;-63
2023/05/16 06:37:29;;;;;;;0.20;0.20;;;;;;;15.33;55.73;102121.56;5031810;28;20092;-62
2023/05/16 06:39:55;;;;;;;0.20;0.20;;;;;;;15.41;56.17;102125.88;5031431;28;20036;-63
2023/05/16 06:42:20;;;;;;;0.30;0.30;;;;;;;15.27;56.17;102133.28;5019665;28;20131;-62
2023/05/16 06:44:46;;;;;;;0.30;0.30;;;;;;;15.90;54.11;102131.09;5021764;28;20025;-62
2023/05/16 06:47:11;;;;;;;0.20;0.20;;;;;;;16.15;54.32;102129.13;5020473;28;20206;-61
2023/05/16 06:49:37;;;;;;;0.30;0.30;;;;;;;15.93;54.62;102132.53;5011132;28;20045;-61
2023/05/16 06:52:02;;;;;;;0.77;0.30;;;;;;;14.64;57.22;102134.53;5018977;28;20042;-63
2023/05/16 06:54:27;;;;;;;0.30;0.30;;;;;;;15.18;55.12;102137.34;5020749;28;20052;-63
2023/05/16 06:56:53;;;;;;;0.20;0.20;;;;;;;15.32;54.35;102143.47;5021728;28;20029;-62
2023/05/16 06:59:18;;;;;;;0.15;0.15;;;;;;;15.63;52.45;102130.63;5016346;28;20498;-63
2023/05/16 07:01:43;;;;;;;0.20;0.20;;;;;;;15.88;51.12;102122.38;5012147;28;20073;-63
2023/05/16 07:04:09;;;;;;;0.30;0.30;;;;;;;15.49;52.05;102131.84;5019607;28;20029;-62
2023/05/16 07:06:34;;;;;;;0.20;0.20;;;;;;;15.80;51.02;102133.56;5017281;28;20064;-62
2023/05/16 07:09:01;;;;;;;0.20;0.20;;;;;;;16.32;50.62;102131.97;5021057;28;20036;-63
2023/05/16 07:11:26;;;;;;;0.20;0.20;;;;;;;15.57;52.41;102139.66;5020557;28;20102;-61
2023/05/16 07:13:52;;;;;;;0.20;0.20;;;;;;;15.21;53.73;102150.47;5020028;28;20065;-63
2023/05/16 07:16:17;;;;;;;0.20;0.20;;;;;;;14.70;53.61;102145.28;5019456;28;20041;-63
2023/05/16 07:18:42;;;;;;;0.20;0.20;;;;;;;15.51;51.86;102145.16;5013915;28;20034;-62
2023/05/16 07:21:08;;;;;;;0.10;0.10;;;;;;;15.43;51.22;102148.19;5013754;28;20033;-61
2023/05/16 07:23:33;;;;;;;0.20;0.20;;;;;;;15.96;50.51;102157.31;5025740;28;20049;-63
2023/05/16 07:25:58;;;;;;;0.30;0.30;;;;;;;15.15;52.43;102158.66;5023850;28;20552;-62
2023/05/16 07:28:24;;;;;;;0.10;0.10;;;;;;;15.76;50.68;102143.19;5024655;28;20034;-62
2023/05/16 07:30:49;;;;;;;0.30;0.30;;;;;;;16.45;48.01;102148.88;5025266;28;20533;-61
2023/05/16 07:33:15;;;;;;;0.20;0.20;;;;;;;16.82;46.74;102152.31;5018008;28;20476;-61
2023/05/16 07:35:40;;;;;;;0.20;0.20;;;;;;;16.75;48.72;102154.28;5021474;28;20022;-63
2023/05/16 07:38:05;;;;;;;0.20;0.20;;;;;;;15.99;49.65;102162.28;5017104;28;20030;-62
2023/05/16 07:40:31;;;;;;;0.10;0.10;;;;;;;16.13;49.53;102166.47;5017616;28;20033;-64
2023/05/16 07:42:57;;;;;;;0.20;0.20;;;;;;;16.11;48.96;102151.50;5017828;28;20393;-64
2023/05/16 07:45:22;;;;;;;0.20;0.20;;;;;;;15.55;50.63;102155.31;5019053;28;20042;-64
2023/05/16 07:47:48;;;;;;;0.20;0.20;;;;;;;15.52;50.01;102152.25;5019138;28;20025;-62
2023/05/16 07:50:13;;;;;;;0.20;0.20;;;;;;;15.68;49.47;102154.34;5021096;28;20486;-62
2023/05/16 07:52:39;;;;;;;0.22;0.22;;;;;;;16.77;47.57;102163.03;5015943;28;20030;-62
2023/05/16 07:55:04;;;;;;;0.10;0.10;;;;;;;17.94;44.66;102157.31;5019616;28;20036;-63
2023/05/16 07:57:30;;;;;;;0.20;0.20;;;;;;;17.37;44.94;102160.94;5020565;28;20037;-64
2023/05/16 07:59:55;;;;;;;0.20;0.20;;;;;;;16.45;45.92;102162.44;5020249;28;20048;-61
2023/05/16 08:02:24;;;;;;;0.17;0.17;;;;;;;16.85;44.21;102164.56;5019293;28;20049;-63
2023/05/16 08:04:49;;;;;;;0.10;0.10;;;;;;;15.89;46.21;102151.16;5018924;28;20029;-62
2023/05/16 08:07:15;;;;;;;0.20;0.20;;;;;;;15.29;46.49;102158.28;5020612;28;20025;-61
2023/05/16 08:09:40;;;;;;;0.20;0.20;;;;;;;15.47;48.51;102169.16;5018647;28;20034;-62
2023/05/16 08:12:06;;;;;;;0.10;0.10;;;;;;;15.89;47.91;102166.59;5022738;28;20064;-63
2023/05/16 08:14:32;;;;;;;0.10;0.10;;;;;;;16.01;45.75;102159.34;5010746;28;20038;-61
2023/05/16 08:17:00;;;;;;;0.10;0.10;;;;;;;16.09;46.44;102161.75;5012049;28;20037;-61
2023/05/16 08:19:26;;;;;;;0.10;0.10;;;;;;;16.21;46.23;102158.03;5019613;28;20492;-63
2023/05/16 08:21:51;;;;;;;0.20;0.20;;;;;;;16.05;47.27;102158.66;5020180;28;20041;-62
2023/05/16 08:24:17;;;;;;;0.20;0.20;;;;;;;15.74;48.03;102165.09;5018380;28;20572;-63
2023/05/16 08:26:42;;;;;;;0.20;0.20;;;;;;;15.98;45.98;102157.91;5019791;28;20033;-63
2023/05/16 08:29:08;;;;;;;0.10;0.10;;;;;;;16.24;47.44;102162.16;5019721;28;20030;-61
2023/05/16 08:31:33;;;;;;;0.10;0.10;;;;;;;16.93;45.83;102162.34;5019236;28;20041;-63
2023/05/16 08:34:00;;;;;;;0.30;0.30;;;;;;;16.61;46.97;102161.00;5021358;28;20039;-62
2023/05/16 08:36:26;;;;;;;0.20;0.20;;;;;;;17.34;45.65;102159.50;5020142;28;20450;-62
2023/05/16 08:38:51;;;;;;;0.20;0.20;;;;;;;18.07;43.62;102153.47;5018711;28;20128;-63
2023/05/16 08:41:17;;;;;;;0.10;0.10;;;;;;;17.80;44.78;102155.94;5022994;28;20040;-62
2023/05/16 08:43:42;;;;;;;0.20;0.20;;;;;;;18.00;43.58;102150.06;5021959;28;20057;-62
2023/05/16 08:46:08;;;;;;;0.13;0.13;;;;;;;16.64;45.08;102155.94;5019788;28;20030;-61
2023/05/16 08:48:35;;;;;;;0.10;0.10;;;;;;;16.97;44.81;102155.38;5014635;28;20034;-61
2023/05/16 08:51:01;;;;;;;0.30;0.30;;;;;;;16.75;43.58;102170.59;5014612;28;20054;-62
2023/05/16 08:53:36;;;;;;;0.20;0.20;;;;;;;17.24;42.17;102159.28;5020498;28;20107;-62
2023/05/16 08:56:03;;;;;;;0.10;0.10;;;;;;;17.33;40.58;102166.03;5022863;28;20033;-64
2023/05/16 08:58:29;;;;;;;0.10;0.10;;;;;;;17.91;39.54;102155.06;5024077;28;20160;-62
2023/05/16 09:00:55;;;;;;;0.30;0.30;;;;;;;18.26;38.89;102150.28;5023206;28;20038;-63
2023/05/16 09:03:23;;;;;;;0.20;0.20;;;;;;;17.66;39.25;102157.25;5022828;28;20072;-63
2023/05/16 09:05:48;;;;;;;0.20;0.20;;;;;;;16.47;41.69;102157.63;5019280;28;20024;-61
2023/05/16 09:08:14;;;;;;;0.10;0.10;;;;;;;16.97;42.09;102159.97;5022994;28;20034;-62
2023/05/16 09:10:39;;;;;;;0.20;0.20;;;;;;;16.10;45.03;102164.22;5023522;28;20087;-60
2023/05/16 09:13:05;;;;;;;0.20;0.20;;;;;;;16.39;45.28;102168.81;5021332;28;20375;-62
2023/05/16 09:15:32;;;;;;;0.20;0.20;;;;;;;16.05;45.53;102172.22;5022015;28;20029;-62
2023/05/16 09:18:00;;;;;;;0.20;0.20;;;;;;;16.50;44.19;102175.38;5023269;28;20021;-63
2023/05/16 09:20:25;;;;;;;0.20;0.20;;;;;;;16.51;44.22;102177.03;5022164;28;20030;-62
2023/05/16 09:22:51;;;;;;;0.10;0.10;;;;;;;15.61;47.14;102200.47;5021564;28;20049;-63
2023/05/16 09:25:17;;;;;;;0.10;0.10;;;;;;;16.09;46.33;102183.44;5023307;28;20157;-62
2023/05/16 09:27:42;;;;;;;0.20;0.20;;;;;;;17.07;45.16;102182.78;5021228;28;20057;-63
2023/05/16 09:30:08;;;;;;;0.20;0.20;;;;;;;17.52;43.27;102192.03;5022047;28;20037;-63
2023/05/16 09:32:34;;;;;;;0.22;0.22;;;;;;;18.22;41.76;102179.06;5023144;28;20156;-63
2023/05/16 09:34:59;;;;;;;0.20;0.20;;;;;;;17.63;41.85;102182.19;5020843;28;20034;-63
2023/05/16 09:37:25;;;;;;;0.20;0.20;;;;;;;17.49;42.36;102186.25;5022530;28;20045;-61
2023/05/16 09:39:53;;;;;;;0.17;0.17;;;;;;;18.47;40.77;102169.75;5021808;28;20036;-63
2023/05/16 09:42:19;;;;;;;0.15;0.15;;;;;;;17.87;39.72;102186.50;5023356;28;20434;-62
2023/05/16 09:44:49;;;;;;;0.15;0.15;;;;;;;18.59;38.69;102171.34;5021093;28;20025;-62
2023/05/16 09:47:16;;;;;;;0.10;0.10;;;;;;;18.33;39.82;102167.31;5021592;28;20033;-62
2023/05/16 09:49:43;;;;;;;0.10;0.10;;;;;;;18.47;39.24;102170.59;5021487;28;20029;-63
2023/05/16 09:52:08;;;;;;;0.10;0.10;;;;;;;19.16;38.49;102175.53;5021768;28;20041;-61
2023/05/16 09:54:34;;;;;;;0.20;0.20;;;;;;;18.50;38.76;102169.25;5021452;28;20041;-62
2023/05/16 09:57:00;;;;;;;0.20;0.20;;;;;;;18.53;39.54;102187.84;5023305;28;20021;-61
2023/05/16 09:59:35;;;;;;;0.10;0.10;;;;;;;17.13;41.92;102184.56;5022143;28;20050;-62
2023/05/16 10:02:02;;;;;;;0.10;0.10;;;;;;;18.13;41.55;102169.66;5016101;28;20033;-63
2023/05/16 10:04:27;;;;;;;0.10;0.10;;;;;;;18.27;41.17;102176.44;5019374;28;20033;-62
2023/05/16 10:06:55;;;;;;;0.13;0.13;;;;;;;18.19;41.56;102171.41;5021034;28;20061;-63
2023/05/16 10:09:21;;;;;;;0.20;0.20;;;;;;;17.61;42.54;102176.16;5021779;28;20049;-62
2023/05/16 10:11:48;;;;;;;0.20;0.20;;;;;;;17.92;41.13;102173.03;5023937;28;20587;-62
2023/05/16 10:14:17;;;;;;;0.20;0.20;;;;;;;18.73;38.85;102171.84;5014702;28;20069;-62
2023/05/16 10:16:43;;;;;;;0.20;0.20;;;;;;;18.97;39.31;102168.72;5011476;28;20572;-64
2023/05/16 10:19:10;;;;;;;0.15;0.15;;;;;;;19.07;36.41;102166.16;5012984;28;20037;-62
2023/05/16 10:21:39;;;;;;;0.20;0.20;;;;;;;18.90;35.77;102176.22;5012427;28;20044;-64
2023/05/16 10:24:08;;;;;;;0.10;0.10;;;;;;;18.27;37.66;102167.44;5013274;28;20083;-63
2023/05/16 10:26:34;;;;;;;0.20;0.20;;;;;;;18.46;37.81;102178.97;5013035;28;20041;-62
2023/05/16 10:29:01;;;;;;;0.20;0.20;;;;;;;17.85;40.61;102176.94;5017080;28;20042;-61
2023/05/16 10:31:28;;;;;;;0.28;0.28;;;;;;;18.51;39.74;102176.34;5022918;28;20061;-63
2023/05/16 10:33:53;;;;;;;0.30;0.30;;;;;;;18.89;39.81;102174.56;5020849;28;20506;-62
2023/05/16 10:36:19;;;;;;;0.10;0.10;;;;;;;18.28;40.17;102167.19;5022181;28;20107;-63
2023/05/16 10:38:46;;;;;;;0.15;0.15;;;;;;;18.95;40.52;102179.03;5022206;28;20045;-61
2023/05/16 10:41:12;;;;;;;0.20;0.20;;;;;;;18.53;38.51;102179.66;5020520;28;20037;-65
2023/05/16 10:43:37;;;;;;;0.20;0.20;;;;;;;17.15;41.65;102177.00;5021203;28;20034;-63
2023/05/16 10:46:06;;;;;;;0.20;0.20;;;;;;;17.58;41.23;102192.13;5021165;28;20030;-61
2023/05/16 10:48:36;;;;;;;0.20;0.20;;;;;;;17.47;42.13;102178.28;5023282;28;20450;-63
2023/05/16 10:51:03;;;;;;;0.10;0.10;;;;;;;18.79;38.92;102171.66;5018276;28;20030;-64
2023/05/16 10:53:33;;;;;;;0.20;0.20;;;;;;;18.79;37.99;102168.16;5022642;28;20064;-63
2023/05/16 10:56:02;;;;;;;0.10;0.10;;;;;;;18.12;39.17;102170.69;5018552;28;20030;-64
2023/05/16 10:58:39;;;;;;;0.10;0.10;;;;;;;17.64;40.04;102194.72;5019963;28;20050;-67
2023/05/16 11:01:26;;;;;;;0.15;0.15;;;;;;;19.35;36.37;102178.88;5019865;28;20042;-62
2023/05/16 11:04:00;;;;;;;0.13;0.13;;;;;;;19.57;35.05;102171.53;5020905;28;20021;-63
2023/05/16 11:06:29;;;;;;;0.25;0.25;;;;;;;17.92;38.86;102178.47;5021262;28;20109;-64
2023/05/16 11:09:09;;;;;;;0.20;0.20;;;;;;;18.13;39.22;102180.53;5019401;28;20108;-63
2023/05/16 11:11:45;;;;;;;0.10;0.10;;;;;;;18.78;38.65;102164.59;5027746;28;20067;-64
2023/05/16 11:14:27;;;;;;;0.10;0.10;;;;;;;19.72;35.44;102166.28;5030973;28;20033;-63
2023/05/16 11:16:59;;;;;;;0.20;0.20;;;;;;;19.37;36.04;102163.06;5030769;28;20045;-63
2023/05/16 11:19:44;;;;;;;0.13;0.13;;;;;;;18.76;37.43;102174.91;5030808;28;20048;-64
2023/05/16 11:22:22;;;;;;;0.25;0.25;;;;;;;18.69;39.13;102163.31;5030848;28;20040;-63